createdAt,value
2023-04-16T00:06:05.130Z,75.8
2023-04-16T00:08:07.075Z,83.1
2023-04-16T00:10:09.065Z,59.9
2023-04-16T00:12:11.058Z,62.8
2023-04-16T00:14:13.017Z,75.9
2023-04-16T00:16:15.012Z,67.2
2023-04-16T00:18:16.988Z,62.5
2023-04-16T00:24:25.961Z,75.3
2023-04-16T00:29:32.434Z,75.9
2023-04-16T00:33:39.446Z,83.2
2023-04-16T00:35:41.408Z,84.3
2023-04-16T00:39:45.379Z,88.4
2023-04-16T00:41:47.334Z,47.4
2023-04-16T00:43:49.321Z,72.7
2023-04-16T00:45:51.337Z,65.1
2023-04-16T00:47:57.155Z,74
2023-04-16T00:49:58.304Z,85.3
2023-04-16T00:52:00.303Z,71.7
2023-04-16T00:54:02.278Z,98.4
2023-04-16T00:56:04.241Z,67.4
2023-04-16T00:58:06.252Z,87.2
2023-04-16T01:00:08.225Z,73.9
2023-04-16T01:02:13.281Z,82.3
2023-04-16T01:04:15.351Z,86.2
2023-04-16T01:06:17.204Z,97.4
2023-04-16T01:08:19.188Z,72.7
2023-04-16T01:10:21.188Z,55.5
2023-04-16T01:12:23.146Z,83.8
2023-04-16T01:14:25.126Z,75.3
2023-04-16T01:16:30.302Z,82.5
2023-04-16T01:18:32.126Z,83.4
2023-04-16T01:20:35.004Z,77.7
2023-04-16T01:21:36.627Z,88.5
2023-04-16T01:23:38.607Z,101
2023-04-16T01:25:40.634Z,81.3
2023-04-16T01:27:42.581Z,88.8
2023-04-16T01:31:49.679Z,80.1
2023-04-16T01:33:51.541Z,85.4
2023-04-16T01:35:53.523Z,98.6
2023-04-16T01:39:57.509Z,102.6
2023-04-16T01:44:04.517Z,89.3
2023-04-16T01:48:08.458Z,88
2023-04-16T01:54:14.399Z,113.1
2023-04-16T01:56:16.402Z,64.1
2023-04-16T01:58:21.431Z,86.8
2023-04-16T02:00:23.389Z,103.7
2023-04-16T02:08:31.312Z,100.9
2023-04-16T02:12:39.156Z,90.9
2023-04-16T02:14:41.171Z,86.9
2023-04-16T02:16:43.169Z,110
2023-04-16T02:17:45.649Z,126.1
2023-04-16T02:19:47.587Z,127.1
2023-04-16T02:34:04.464Z,101.9
2023-04-16T02:36:06.407Z,116.8
2023-04-16T02:38:08.389Z,120.8
2023-04-16T02:40:13.415Z,124.6
2023-04-16T02:42:15.408Z,102.3
2023-04-16T02:44:17.378Z,101.4
2023-04-16T02:48:21.296Z,118.4
2023-04-16T02:54:30.295Z,144.8
2023-04-16T02:56:32.273Z,136.8
2023-04-16T02:58:34.247Z,110.1
2023-04-16T03:00:36.211Z,117.2
2023-04-16T03:04:40.199Z,108.9
2023-04-16T03:06:42.136Z,102.3
2023-04-16T03:08:47.171Z,116.6
2023-04-16T03:10:49.156Z,133.4
2023-04-16T03:12:51.119Z,141.6
2023-04-16T03:17:10.102Z,142.2
2023-04-16T03:19:12.271Z,117.7
2023-04-16T03:21:17.136Z,118.1
2023-04-16T03:23:19.074Z,129.3
2023-04-16T03:29:24.997Z,128.4
2023-04-16T03:31:27.051Z,119.2
2023-04-16T03:35:34.000Z,129.2
2023-04-16T03:37:35.968Z,140.2
2023-04-16T03:39:37.935Z,104.8
2023-04-16T03:41:39.914Z,119.3
2023-04-16T03:43:41.897Z,135.4
2023-04-16T03:45:43.831Z,102.3
2023-04-16T03:47:45.868Z,131.5
2023-04-16T03:49:50.867Z,150.5
2023-04-16T03:51:52.806Z,124.6
2023-04-16T03:53:54.816Z,136.1
2023-04-16T03:55:56.765Z,165.3
2023-04-16T03:57:58.749Z,146.4
2023-04-16T04:00:00.737Z,139.6
2023-04-16T04:02:02.823Z,162.8
2023-04-16T04:06:09.695Z,125.5
2023-04-16T04:08:11.678Z,117.8
2023-04-16T04:09:14.173Z,142.3
2023-04-16T04:11:16.135Z,122
2023-04-16T04:13:18.148Z,157.4
2023-04-16T04:15:20.113Z,148.5
2023-04-16T04:17:25.148Z,151
2023-04-16T04:19:27.114Z,129.7
2023-04-16T04:23:31.049Z,124.5
2023-04-16T04:25:33.048Z,116.2
2023-04-16T04:29:36.967Z,127.8
2023-04-16T04:39:49.873Z,155.5
2023-04-16T04:41:52.525Z,131.1
2023-04-16T04:43:54.505Z,121.7
2023-04-16T04:45:59.517Z,124
2023-04-16T04:48:01.568Z,126.7
2023-04-16T04:50:03.470Z,118.4
2023-04-16T04:52:05.428Z,164.7
2023-04-16T04:54:07.405Z,134.6
2023-04-16T04:56:12.815Z,120.7
2023-04-16T05:02:19.927Z,143.9
2023-04-16T05:11:30.285Z,131.8
2023-04-16T05:13:35.311Z,115.9
2023-04-16T05:15:37.246Z,117.1
2023-04-16T05:17:39.296Z,111.6
2023-04-16T05:19:41.225Z,120.9
2023-04-16T05:21:43.193Z,154.1
2023-04-16T05:23:45.151Z,114.3
2023-04-16T05:25:47.127Z,129.3
2023-04-16T05:27:52.187Z,137.1
2023-04-16T05:29:54.157Z,115.6
2023-04-16T05:31:56.124Z,126.6
2023-04-16T05:33:58.115Z,119.8
2023-04-16T05:36:00.135Z,130
2023-04-16T05:38:02.059Z,136.1
2023-04-16T05:40:04.041Z,129.5
2023-04-16T05:42:09.047Z,137.4
2023-04-16T05:44:11.015Z,140
2023-04-16T05:46:13.035Z,154.7
2023-04-16T05:48:14.963Z,135
2023-04-16T05:52:18.927Z,151.6
2023-04-16T05:56:25.928Z,144.6
2023-04-16T05:58:27.896Z,119
2023-04-16T06:03:34.430Z,123.6
2023-04-16T06:05:36.532Z,150.2
2023-04-16T06:13:47.301Z,164.2
2023-04-16T06:15:49.340Z,152.5
2023-04-16T06:21:55.235Z,141.6
2023-04-16T06:24:00.251Z,155.3
2023-04-16T06:26:02.232Z,136.9
2023-04-16T06:28:04.221Z,154.9
2023-04-16T06:30:06.193Z,117
2023-04-16T06:32:08.203Z,148.4
2023-04-16T06:34:10.174Z,178.9
2023-04-16T06:36:12.124Z,176.9
2023-04-16T06:38:17.189Z,186.2
2023-04-16T06:40:19.132Z,150.1
2023-04-16T06:42:21.184Z,159.6
2023-04-16T06:44:23.138Z,160.4
2023-04-16T06:46:25.134Z,136.5
2023-04-16T06:48:27.087Z,156.8
2023-04-16T06:52:34.077Z,147.4
2023-04-16T06:54:36.056Z,132.3
2023-04-16T06:56:38.049Z,164.2
2023-04-16T06:59:00.676Z,141.1
2023-04-16T07:01:02.709Z,166.3
2023-04-16T07:03:04.718Z,145
2023-04-16T07:05:09.647Z,143.9
2023-04-16T07:07:11.630Z,145
2023-04-16T07:09:13.583Z,161.2
2023-04-16T07:11:15.572Z,150
2023-04-16T07:13:17.581Z,134.3
2023-04-16T07:17:21.529Z,142.2
2023-04-16T07:19:26.549Z,130.3
2023-04-16T07:23:30.524Z,162.2
2023-04-16T07:25:32.778Z,161.2
2023-04-16T07:27:34.480Z,124.8
2023-04-16T07:29:36.452Z,153.8
2023-04-16T07:31:38.518Z,151.7
2023-04-16T07:33:43.496Z,139.8
2023-04-16T07:35:45.460Z,149.8
2023-04-16T07:37:47.427Z,141.1
2023-04-16T07:39:49.434Z,129.8
2023-04-16T07:41:51.408Z,141.3
2023-04-16T07:43:53.406Z,128
2023-04-16T07:45:55.422Z,163.8
2023-04-16T07:48:00.458Z,139.5
2023-04-16T07:50:02.412Z,155.7
2023-04-16T07:52:04.383Z,132.4
2023-04-16T07:53:06.903Z,160.7
2023-04-16T07:57:10.868Z,140.7
2023-04-16T07:59:22.148Z,136
2023-04-16T08:01:17.896Z,132.7
2023-04-16T08:03:20.079Z,126.3
2023-04-16T08:05:21.976Z,130.5
2023-04-16T08:09:25.846Z,147.2
2023-04-16T08:11:27.785Z,139.9
2023-04-16T08:13:31.223Z,133.7
2023-04-16T08:15:34.870Z,150.4
2023-04-16T08:19:38.827Z,120.4
2023-04-16T08:23:42.770Z,123.8
2023-04-16T08:25:44.757Z,132.1
2023-04-16T08:27:46.732Z,153.3
2023-04-16T08:29:51.764Z,124.2
2023-04-16T08:31:53.829Z,134.6
2023-04-16T08:33:55.754Z,130.7
2023-04-16T08:35:57.725Z,114
2023-04-16T08:42:03.691Z,99
2023-04-16T08:44:08.746Z,118.8
2023-04-16T08:46:10.755Z,109.8
2023-04-16T08:48:12.709Z,95.2
2023-04-16T08:49:15.214Z,108.7
2023-04-16T08:53:19.195Z,85.5
2023-04-16T09:01:30.226Z,88.6
2023-04-16T09:03:34.826Z,93.6
2023-04-16T09:07:36.183Z,93.3
2023-04-16T09:09:38.154Z,73
2023-04-16T09:11:43.185Z,80.1
2023-04-16T09:19:51.150Z,95
2023-04-16T09:21:53.140Z,79.7
2023-04-16T09:26:00.176Z,89.3
2023-04-16T09:32:06.155Z,75.2
2023-04-16T09:34:08.148Z,65
2023-04-16T09:36:10.105Z,64.4
2023-04-16T09:38:12.120Z,62.8
2023-04-16T09:40:17.176Z,69.9
2023-04-16T09:42:19.146Z,77.7
2023-04-16T09:45:23.695Z,57.1
2023-04-16T09:47:25.687Z,70.8
2023-04-16T09:49:27.635Z,68.4
2023-04-16T09:51:29.637Z,53.9
2023-04-16T09:53:34.681Z,58.4
2023-04-16T09:55:36.665Z,60.3
2023-04-16T10:05:46.600Z,67.4
2023-04-16T10:09:53.627Z,58.2
2023-04-16T10:15:59.590Z,64
2023-04-16T10:22:08.594Z,51.9
2023-04-16T10:24:10.566Z,51.3
2023-04-16T10:26:12.569Z,50.4
2023-04-16T10:28:14.525Z,45.3
2023-04-16T10:30:16.537Z,57
2023-04-16T10:32:18.673Z,62.6
2023-04-16T10:38:27.520Z,74.1
2023-04-16T10:44:54.309Z,57.6
2023-04-16T10:49:02.767Z,67.9
2023-04-16T10:57:10.719Z,62.4
2023-04-16T11:07:23.647Z,64.8
2023-04-16T11:09:25.612Z,52.1
2023-04-16T11:27:46.494Z,45.6
2023-04-16T11:29:48.465Z,49.2
2023-04-16T11:31:53.487Z,46.9
2023-04-16T11:35:57.433Z,53.4
2023-04-16T11:36:59.956Z,51.6
2023-04-16T11:39:01.925Z,40.9
2023-04-16T11:41:03.899Z,41
2023-04-16T11:43:05.864Z,44.8
2023-04-16T11:57:22.729Z,49.7
2023-04-16T11:59:27.777Z,48.1
2023-04-16T12:01:29.750Z,43.5
2023-04-16T12:03:31.890Z,53.8
2023-04-16T12:05:35.942Z,39.6
2023-04-16T12:09:40.181Z,53.6
2023-04-16T12:11:39.603Z,64.2
2023-04-16T12:13:44.610Z,59.6
2023-04-16T12:15:46.610Z,43.6
2023-04-16T12:17:48.659Z,43.7
2023-04-16T12:19:50.540Z,38.9
2023-04-16T12:21:52.506Z,52.9
2023-04-16T12:23:54.495Z,52.2
2023-04-16T12:25:56.464Z,44.1
2023-04-16T12:28:01.580Z,45.4
2023-04-16T12:30:03.487Z,46.1
2023-04-16T12:32:05.454Z,45
2023-04-16T12:33:08.071Z,45.5
2023-04-16T12:39:13.905Z,50.9
2023-04-16T12:41:18.956Z,41.2
2023-04-16T12:43:20.905Z,51
2023-04-16T12:45:22.889Z,44.1
2023-04-16T12:47:24.879Z,37.7
2023-04-16T12:49:26.816Z,55.5
2023-04-16T12:51:28.810Z,43.2
2023-04-16T12:53:30.766Z,50.4
2023-04-16T13:07:47.673Z,49.1
2023-04-16T13:09:52.705Z,42.8
2023-04-16T13:11:54.677Z,40.3
2023-04-16T13:15:58.649Z,54.4
2023-04-16T13:18:00.652Z,33.7
2023-04-16T13:26:11.551Z,36.1
2023-04-16T13:28:13.543Z,51.1
2023-04-16T13:29:16.044Z,41.9
2023-04-16T13:31:18.067Z,42.3
2023-04-16T13:33:19.991Z,46.7
2023-04-16T13:35:21.975Z,52
2023-04-16T13:37:27.019Z,44.4
2023-04-16T13:39:29.022Z,41.7
2023-04-16T13:41:30.968Z,38.8
2023-04-16T13:43:32.938Z,43
2023-04-16T13:45:34.904Z,41.3
2023-04-16T13:49:38.881Z,38.5
2023-04-16T13:51:43.926Z,37.2
2023-04-16T13:53:45.899Z,41.2
2023-04-16T13:55:47.874Z,47.3
2023-04-16T13:59:51.832Z,26.1
2023-04-16T14:06:00.838Z,34.8
2023-04-16T14:12:06.780Z,35.5
2023-04-16T14:14:08.760Z,49.6
2023-04-16T14:18:12.742Z,64.2
2023-04-16T14:22:19.831Z,39.1
2023-04-16T14:26:38.825Z,49.5
2023-04-16T14:28:40.790Z,33.9
2023-04-16T14:32:47.874Z,36.9
2023-04-16T14:36:51.775Z,39.7
2023-04-16T14:38:53.779Z,34.8
2023-04-16T14:40:55.743Z,31.2
2023-04-16T14:42:57.730Z,49.2
2023-04-16T14:44:59.694Z,30.3
2023-04-16T14:53:10.704Z,49.3
2023-04-16T15:13:33.587Z,39.1
2023-04-16T15:20:45.114Z,34.3
2023-04-16T15:22:47.134Z,36
2023-04-16T15:24:49.081Z,43
2023-04-16T15:26:51.063Z,41.8
2023-04-16T15:28:56.132Z,49
2023-04-16T15:30:58.135Z,36.3
2023-04-16T15:33:00.165Z,34.3
2023-04-16T15:35:02.106Z,38.4
2023-04-16T15:37:04.060Z,39.8
2023-04-16T15:39:06.061Z,40.1
2023-04-16T15:41:08.028Z,36
2023-04-16T15:47:17.092Z,31.2
2023-04-16T15:51:21.053Z,52.2
2023-04-16T16:01:34.067Z,41.4
2023-04-16T16:03:36.209Z,35.4
2023-04-16T16:05:38.036Z,41.9
2023-04-16T16:09:42.005Z,45.2
2023-04-16T16:11:47.064Z,28.6
2023-04-16T16:13:49.056Z,92.4
2023-04-16T16:15:51.145Z,31.5
2023-04-16T16:16:53.557Z,34.1
2023-04-16T16:20:57.560Z,37.9
2023-04-16T16:22:59.533Z,44.8
2023-04-16T16:27:06.567Z,34.7
2023-04-16T16:31:10.624Z,30.4
2023-04-16T16:33:12.557Z,38.7
2023-04-16T16:43:27.056Z,55.9
2023-04-16T16:45:29.460Z,45.7
2023-04-16T16:49:33.065Z,42.3
2023-04-16T16:51:35.062Z,50.3
2023-04-16T16:53:40.101Z,43.1
2023-04-16T16:55:42.096Z,34.6
2023-04-16T16:57:44.084Z,53.2
2023-04-16T16:59:46.097Z,53.7
2023-04-16T17:01:48.092Z,42
2023-04-16T17:03:50.213Z,43
2023-04-16T17:05:52.073Z,48.8
2023-04-16T17:07:57.124Z,56.2
2023-04-16T17:10:01.369Z,42
2023-04-16T17:12:01.110Z,37.2
2023-04-16T17:13:03.649Z,49.3
2023-04-16T17:15:05.637Z,43.8
2023-04-16T17:17:07.622Z,42.1
2023-04-16T17:19:09.881Z,41.1
2023-04-16T17:21:16.489Z,54.5
2023-04-16T17:23:16.688Z,41.5
2023-04-16T17:25:18.667Z,66.5
2023-04-16T17:27:20.654Z,46.3
2023-04-16T17:29:22.630Z,50
2023-04-16T17:31:26.697Z,42.9
2023-04-16T17:33:26.630Z,37.3
2023-04-16T17:35:31.672Z,44.3
2023-04-16T17:37:33.658Z,37.4
2023-04-16T17:39:35.698Z,35.6
2023-04-16T17:41:37.670Z,52.1
2023-04-16T17:43:39.644Z,45.6
2023-04-16T17:45:41.695Z,43.9
2023-04-16T17:47:43.703Z,43.6
2023-04-16T17:49:48.700Z,43.2
2023-04-16T17:51:50.699Z,49.5
2023-04-16T17:53:52.684Z,44.7
2023-04-16T17:55:56.704Z,48
2023-04-16T17:59:58.689Z,41.4
2023-04-16T18:02:00.778Z,57.8
2023-04-16T18:04:06.027Z,52.1
2023-04-16T18:06:07.728Z,63.8
2023-04-16T18:10:33.106Z,53.9
2023-04-16T18:12:34.348Z,42.8
2023-04-16T18:14:36.333Z,51
2023-04-16T18:28:53.315Z,60.4
2023-04-16T18:30:59.185Z,82.9
2023-04-16T18:33:33.632Z,57.4
2023-04-16T18:37:04.354Z,66
2023-04-16T18:39:06.370Z,71.7
2023-04-16T18:41:08.313Z,72.2
2023-04-16T18:47:17.352Z,68.4
2023-04-16T18:49:19.338Z,57
2023-04-16T18:51:21.355Z,59.8
2023-04-16T18:57:27.312Z,56.7
2023-04-16T18:59:32.380Z,57
2023-04-16T19:01:34.368Z,58.1
2023-04-16T19:03:36.604Z,60
2023-04-16T19:08:42.865Z,58.1
2023-04-16T19:10:44.854Z,69.2
2023-04-16T19:12:49.919Z,56.7
2023-04-16T19:14:51.889Z,58.8
2023-04-16T19:16:53.897Z,65.5
2023-04-16T19:20:57.871Z,62.8
2023-04-16T19:27:06.943Z,59.4
2023-04-16T19:31:10.945Z,62.3
2023-04-16T19:33:12.885Z,74.9
2023-04-16T19:35:14.877Z,52.5
2023-04-16T19:37:16.857Z,52.9
2023-04-16T19:39:18.859Z,60.1
2023-04-16T19:41:23.898Z,67.5
2023-04-16T19:47:29.900Z,56.5
2023-04-16T19:49:33.754Z,72.2
2023-04-16T19:53:35.854Z,62.8
2023-04-16T19:55:40.902Z,55.2
2023-04-16T19:57:42.893Z,70.7
2023-04-16T19:59:44.886Z,56.6
2023-04-16T20:00:47.437Z,58.8
2023-04-16T20:02:49.629Z,54.3
2023-04-16T20:11:00.438Z,65.4
2023-04-16T20:23:15.429Z,61.9
2023-04-16T20:27:19.432Z,57
2023-04-16T20:31:23.532Z,57.3
2023-04-16T20:33:25.396Z,60
2023-04-16T20:35:27.400Z,62.2
2023-04-16T20:37:32.445Z,69.5
2023-04-16T20:39:34.449Z,61.2
2023-04-16T20:41:36.425Z,53.4
2023-04-16T20:43:38.501Z,74.7
2023-04-16T20:45:40.375Z,68.2
2023-04-16T20:47:42.430Z,59.5
2023-04-16T20:49:44.349Z,62
2023-04-16T20:51:49.405Z,53.2
2023-04-16T20:53:51.406Z,53.6
2023-04-16T20:55:53.389Z,74.7
2023-04-16T20:56:55.908Z,58.8
2023-04-16T21:03:02.020Z,58.2
2023-04-16T21:05:06.911Z,63.1
2023-04-16T21:11:12.872Z,83.1
2023-04-16T21:13:14.928Z,61.3
2023-04-16T21:15:16.880Z,61.5
2023-04-16T21:17:18.915Z,70.9
2023-04-16T21:19:23.905Z,73.4
2023-04-16T21:21:25.899Z,62.5
2023-04-16T21:23:27.880Z,75.6
2023-04-16T21:25:29.859Z,73.3
2023-04-16T21:29:33.850Z,77
2023-04-16T21:31:35.892Z,63.5
2023-04-16T21:33:40.891Z,89.1
2023-04-16T21:35:42.874Z,91.2
2023-04-16T21:37:44.833Z,77.7
2023-04-16T21:39:46.821Z,62.3
2023-04-16T21:41:48.849Z,72.1
2023-04-16T21:43:50.792Z,72.8
2023-04-16T21:45:52.793Z,74.7
2023-04-16T21:47:57.880Z,75.5
2023-04-16T21:49:59.805Z,70.9
2023-04-16T21:52:01.817Z,85.7
2023-04-16T22:08:41.295Z,73.1
2023-04-16T22:10:43.293Z,76.4
2023-04-16T22:12:45.276Z,76.8
2023-04-16T22:15:01.871Z,93.1
2023-04-16T22:20:56.282Z,84.4
2023-04-16T22:25:00.240Z,79.5
2023-04-16T22:29:07.227Z,92.5
2023-04-16T22:31:10.752Z,88.3
2023-04-16T22:33:12.789Z,74.2
2023-04-16T22:35:14.650Z,79.4
2023-04-16T22:37:16.642Z,79
2023-04-16T22:39:18.631Z,72.5
2023-04-16T22:41:20.603Z,87
2023-04-16T22:43:25.671Z,84.6
2023-04-16T22:45:27.637Z,87.2
2023-04-16T22:47:29.632Z,91
2023-04-16T22:48:32.111Z,89.9
2023-04-16T22:50:34.092Z,91.6
2023-04-16T22:54:38.064Z,71.1
2023-04-16T22:58:45.087Z,88.3
2023-04-16T23:15:04.023Z,94
2023-04-16T23:21:09.935Z,98.1
2023-04-16T23:23:11.946Z,84.5
2023-04-16T23:27:18.940Z,77.2
2023-04-16T23:29:20.916Z,75.6
2023-04-16T23:31:22.950Z,90.7
2023-04-16T23:33:25.665Z,70.3
2023-04-16T23:35:26.850Z,86.4
2023-04-16T23:37:28.840Z,85.8
2023-04-16T23:39:33.882Z,78
2023-04-16T23:41:35.822Z,99
2023-04-16T23:43:38.579Z,64.6
2023-04-16T23:44:40.336Z,71.2
2023-04-16T23:46:42.427Z,76.1
2023-04-16T23:48:44.285Z,68.7
2023-04-16T23:50:46.283Z,75.9
2023-04-16T23:54:53.269Z,60.2
2023-04-16T23:56:55.275Z,74.6
2023-04-16T23:58:57.694Z,75.2
